Time;durP1;ratioP1;P1;durP2;ratioP2;P2;SDS_P1;SDS_P2;PMS_P1;PMS_P2;Temp;Humidity;BMP_temperature;BMP_pressure;BME280_temperature;BME280_humidity;BME280_pressure;Samples;Min_cycle;Max_cycle;Signal;HPM_P1;HPM_P2
2022/10/08 00:02:23;;;;;;;15.30;7.78;;;15.40;67.90;;;;;;5118062;28;20024;-59
2022/10/08 00:04:49;;;;;;;13.73;6.07;;;15.40;68.00;;;;;;5116923;27;20474;-59
2022/10/08 00:07:15;;;;;;;12.15;5.20;;;15.40;68.10;;;;;;5125293;27;20502;-59
2022/10/08 00:09:41;;;;;;;13.57;4.40;;;15.40;68.10;;;;;;5134147;27;20028;-59
2022/10/08 00:12:06;;;;;;;12.57;4.13;;;15.40;68.20;;;;;;5115551;28;20034;-59
2022/10/08 00:14:32;;;;;;;12.25;5.28;;;15.40;68.30;;;;;;5116323;27;20039;-60
2022/10/08 00:16:57;;;;;;;14.63;5.57;;;15.40;68.40;;;;;;5116094;28;20035;-58
2022/10/08 00:19:23;;;;;;;9.85;4.03;;;15.40;68.40;;;;;;5117427;28;20486;-58
2022/10/08 00:21:52;;;;;;;12.40;3.45;;;15.40;68.60;;;;;;5117222;28;20119;-59
2022/10/08 00:24:20;;;;;;;11.27;4.03;;;15.40;68.70;;;;;;5116750;28;20063;-59
2022/10/08 00:26:45;;;;;;;10.90;3.40;;;15.40;68.80;;;;;;5116793;27;20034;-59
2022/10/08 00:29:14;;;;;;;11.07;4.18;;;15.40;68.80;;;;;;5116286;28;20356;-56
2022/10/08 00:31:43;;;;;;;10.15;4.20;;;15.40;68.80;;;;;;5133740;27;20023;-58
2022/10/08 00:34:14;;;;;;;13.00;4.78;;;15.40;68.90;;;;;;5116407;28;20379;-58
2022/10/08 00:36:41;;;;;;;10.60;4.05;;;15.40;69.00;;;;;;5117238;27;20039;-58
2022/10/08 00:39:10;;;;;;;13.63;5.00;;;15.40;69.00;;;;;;5130254;27;20031;-57
2022/10/08 00:41:37;;;;;;;12.68;4.63;;;15.40;69.20;;;;;;5116883;28;20110;-57
2022/10/08 00:44:41;;;;;;;11.52;5.53;;;15.40;69.30;;;;;;5132484;27;20023;-58
2022/10/08 00:47:40;;;;;;;19.40;8.85;;;15.40;69.40;;;;;;5116290;28;20034;-59
2022/10/08 00:50:18;;;;;;;11.85;6.05;;;15.40;69.40;;;;;;5096677;27;20036;-58
2022/10/08 00:52:52;;;;;;;11.00;4.05;;;15.40;69.70;;;;;;5119612;27;20400;-56
2022/10/08 00:55:20;;;;;;;9.10;3.75;;;15.40;69.80;;;;;;5103149;28;20032;-59
2022/10/08 00:57:46;;;;;;;10.90;3.28;;;15.40;70.00;;;;;;5115374;28;20042;-59
2022/10/08 01:00:19;;;;;;;10.63;3.53;;;15.40;70.10;;;;;;5116887;28;20033;-60
2022/10/08 01:02:44;;;;;;;10.00;3.22;;;15.40;70.50;;;;;;5116342;27;20039;-59
2022/10/08 01:05:14;;;;;;;8.45;3.00;;;15.40;70.70;;;;;;5117063;28;20019;-59
2022/10/08 01:07:49;;;;;;;9.85;3.30;;;15.30;71.00;;;;;;5115863;28;20027;-58
2022/10/08 01:10:59;;;;;;;9.32;3.13;;;15.30;71.40;;;;;;5116350;27;20035;-59
2022/10/08 01:13:40;;;;;;;10.38;2.92;;;15.30;71.80;;;;;;5111615;27;20046;-59
2022/10/08 01:16:40;;;;;;;10.00;2.97;;;15.30;72.10;;;;;;5106397;28;20453;-60
2022/10/08 01:19:17;;;;;;;10.55;3.28;;;15.30;72.30;;;;;;5115861;28;20040;-59
2022/10/08 01:22:07;;;;;;;7.78;3.17;;;15.30;72.60;;;;;;5115919;28;20046;-59
2022/10/08 01:27:37;;;;;;;11.35;3.25;;;15.20;73.20;;;;;;5115346;27;20015;-59
2022/10/08 01:30:04;;;;;;;;;;;15.10;73.40;;;;;;5116531;28;20106;-60
2022/10/08 01:32:40;;;;;;;7.75;2.90;;;15.10;73.30;;;;;;5116480;28;19960;-58
2022/10/08 01:35:14;;;;;;;9.85;2.90;;;15.10;73.80;;;;;;5115763;27;20027;-59
2022/10/08 01:37:43;;;;;;;10.77;3.45;;;15.00;74.10;;;;;;5118174;27;20055;-59
2022/10/08 01:40:17;;;;;;;9.93;3.20;;;15.00;74.50;;;;;;5128446;27;20027;-57
2022/10/08 01:42:44;;;;;;;10.00;3.47;;;15.00;74.80;;;;;;5118309;27;20035;-59
2022/10/08 01:45:16;;;;;;;14.10;3.85;;;15.00;75.00;;;;;;5116699;28;20508;-60
2022/10/08 01:47:44;;;;;;;10.68;3.95;;;15.00;75.30;;;;;;5116626;28;20038;-59
2022/10/08 01:50:14;;;;;;;11.48;4.80;;;15.00;75.40;;;;;;5116527;28;20367;-58
2022/10/08 01:53:06;;;;;;;12.00;5.93;;;15.00;75.60;;;;;;5114856;27;20024;-58
2022/10/08 01:55:41;;;;;;;9.18;4.38;;;15.00;75.70;;;;;;5115981;28;20127;-60
2022/10/08 01:58:14;;;;;;;9.57;4.03;;;15.00;75.90;;;;;;5116635;28;20023;-60
2022/10/08 02:00:41;;;;;;;9.40;3.33;;;14.90;76.10;;;;;;5115657;28;20108;-59
2022/10/08 02:03:10;;;;;;;6.88;3.00;;;14.90;76.20;;;;;;5113141;28;20243;-59
2022/10/08 02:05:43;;;;;;;10.13;3.22;;;14.90;76.40;;;;;;5112365;27;20440;-60
2022/10/08 02:08:09;;;;;;;8.00;2.72;;;14.90;76.60;;;;;;5117209;27;20055;-60
2022/10/08 02:10:35;;;;;;;12.00;3.40;;;14.90;76.70;;;;;;5115674;28;20042;-60
2022/10/08 02:13:01;;;;;;;8.25;3.13;;;14.90;76.90;;;;;;5115204;28;20031;-58
2022/10/08 02:15:47;;;;;;;10.45;3.35;;;14.90;77.10;;;;;;5115315;28;20027;-59
2022/10/08 02:18:36;;;;;;;9.70;3.60;;;14.80;77.90;;;;;;5115014;28;20468;-59
2022/10/08 02:21:07;;;;;;;8.48;3.83;;;14.80;77.50;;;;;;5109559;28;20460;-58
2022/10/08 02:23:42;;;;;;;11.10;4.03;;;14.80;77.60;;;;;;5114972;28;20444;-58
2022/10/08 02:26:12;;;;;;;9.90;4.20;;;14.80;77.60;;;;;;5102210;28;20031;-59
2022/10/08 02:29:04;;;;;;;10.82;5.00;;;14.80;77.90;;;;;;5115619;28;20031;-59
2022/10/08 02:31:42;;;;;;;8.98;4.85;;;14.80;78.10;;;;;;5103682;28;20100;-56
2022/10/08 02:34:26;;;;;;;10.45;5.18;;;14.80;78.20;;;;;;5115261;28;20122;-59
2022/10/08 02:37:38;;;;;;;11.82;5.55;;;14.80;78.40;;;;;;5130140;27;20341;-59
2022/10/08 02:40:11;;;;;;;11.57;5.20;;;14.80;78.40;;;;;;5110334;28;20400;-58
2022/10/08 02:42:41;;;;;;;10.50;5.30;;;14.80;78.50;;;;;;5114658;28;20467;-59
2022/10/08 02:45:22;;;;;;;12.00;5.10;;;14.80;78.60;;;;;;5116592;27;20029;-59
2022/10/08 02:47:52;;;;;;;12.10;5.25;;;14.80;78.80;;;;;;5115734;28;20032;-60
2022/10/08 02:50:21;;;;;;;11.43;5.20;;;14.80;78.90;;;;;;5115409;28;20034;-57
2022/10/08 02:52:49;;;;;;;11.80;5.40;;;14.70;79.00;;;;;;5113178;28;20460;-57
2022/10/08 02:55:28;;;;;;;9.80;4.75;;;14.80;79.10;;;;;;5119135;27;20106;-59
2022/10/08 02:58:02;;;;;;;10.20;5.53;;;14.80;79.20;;;;;;5115737;28;20434;-60
2022/10/08 03:00:33;;;;;;;9.05;4.50;;;14.80;79.20;;;;;;5115486;28;20030;-59
2022/10/08 03:03:08;;;;;;;11.38;4.60;;;14.80;79.20;;;;;;5114434;28;20027;-58
2022/10/08 03:05:36;;;;;;;13.82;5.43;;;14.80;79.30;;;;;;5114405;28;20036;-59
2022/10/08 03:08:04;;;;;;;10.57;5.43;;;14.80;79.40;;;;;;5114932;28;20092;-60
2022/10/08 03:10:32;;;;;;;11.50;5.00;;;14.80;79.40;;;;;;5114937;28;20030;-59
2022/10/08 03:13:02;;;;;;;10.35;5.00;;;14.80;79.50;;;;;;5114740;28;20059;-58
2022/10/08 03:15:30;;;;;;;9.85;4.90;;;14.70;79.60;;;;;;5115187;28;20032;-60
2022/10/08 03:17:57;;;;;;;12.00;5.55;;;14.70;79.60;;;;;;5114727;28;20044;-61
2022/10/08 03:20:23;;;;;;;10.32;4.85;;;14.70;80.40;;;;;;5114244;28;20028;-60
2022/10/08 03:22:48;;;;;;;11.93;5.20;;;14.70;79.80;;;;;;5129961;28;20085;-58
2022/10/08 03:25:14;;;;;;;10.30;5.40;;;14.70;79.80;;;;;;5114765;28;20036;-60
2022/10/08 03:27:40;;;;;;;9.50;5.10;;;14.70;79.90;;;;;;5113769;28;20100;-59
2022/10/08 03:30:06;;;;;;;10.20;5.15;;;14.70;79.90;;;;;;5113789;28;20023;-59
2022/10/08 03:32:31;;;;;;;11.30;4.97;;;14.70;79.90;;;;;;5118510;28;20032;-59
2022/10/08 03:34:57;;;;;;;10.82;4.22;;;14.70;80.00;;;;;;5118529;28;20020;-60
2022/10/08 03:37:23;;;;;;;9.95;4.55;;;14.70;80.00;;;;;;5115420;28;20024;-60
2022/10/08 03:39:48;;;;;;;8.63;4.35;;;14.70;80.10;;;;;;5114085;28;20056;-60
2022/10/08 03:42:14;;;;;;;11.02;4.40;;;14.70;80.10;;;;;;5113315;28;20024;-60
2022/10/08 03:44:40;;;;;;;11.25;4.28;;;14.70;80.20;;;;;;5114432;28;20031;-59
2022/10/08 03:47:05;;;;;;;9.68;4.45;;;14.60;80.20;;;;;;5121142;28;20028;-59
2022/10/08 03:49:31;;;;;;;9.13;3.72;;;14.60;80.20;;;;;;5112983;28;20015;-59
2022/10/08 03:51:56;;;;;;;11.40;4.30;;;14.60;80.20;;;;;;5114118;28;20031;-59
2022/10/08 03:54:22;;;;;;;9.60;3.78;;;14.60;80.30;;;;;;5113162;28;20036;-58
2022/10/08 03:56:48;;;;;;;10.30;4.05;;;14.60;80.30;;;;;;5113949;28;20321;-59
2022/10/08 03:59:13;;;;;;;10.02;4.07;;;14.60;80.30;;;;;;5114561;28;20023;-58
2022/10/08 04:01:39;;;;;;;10.82;4.40;;;14.60;80.40;;;;;;5114203;28;20028;-59
2022/10/08 04:04:05;;;;;;;9.80;4.10;;;14.60;80.40;;;;;;5113399;28;20413;-59
2022/10/08 04:06:30;;;;;;;10.27;4.35;;;14.60;80.40;;;;;;5114736;28;20460;-59
2022/10/08 04:08:59;;;;;;;10.65;4.15;;;14.60;80.40;;;;;;5114568;28;20035;-60
2022/10/08 04:11:26;;;;;;;11.25;4.18;;;14.60;80.50;;;;;;5118580;28;20038;-59
2022/10/08 04:13:52;;;;;;;11.38;4.25;;;14.60;80.60;;;;;;5115887;28;20428;-58
2022/10/08 04:16:18;;;;;;;10.35;4.03;;;14.60;80.60;;;;;;5116574;28;20034;-58
2022/10/08 04:18:46;;;;;;;8.82;3.78;;;14.60;80.60;;;;;;5117120;28;20044;-60
2022/10/08 04:21:15;;;;;;;11.77;4.63;;;14.60;80.60;;;;;;5116333;28;20043;-59
2022/10/08 04:23:42;;;;;;;9.23;4.07;;;14.50;80.60;;;;;;5117050;27;20070;-59
2022/10/08 04:26:10;;;;;;;10.98;4.03;;;14.50;80.50;;;;;;5116998;28;20019;-58
2022/10/08 04:28:37;;;;;;;8.40;3.50;;;14.50;80.60;;;;;;5117921;28;20035;-59
2022/10/08 04:31:04;;;;;;;9.60;4.50;;;14.50;80.60;;;;;;5116887;27;20024;-60
2022/10/08 04:33:31;;;;;;;11.38;4.05;;;14.50;80.60;;;;;;5119291;27;20067;-59
2022/10/08 04:35:57;;;;;;;11.55;3.63;;;14.50;80.60;;;;;;5119330;27;20024;-59
2022/10/08 04:38:23;;;;;;;9.25;4.03;;;14.50;80.60;;;;;;5134988;27;20042;-58
2022/10/08 04:41:00;;;;;;;10.75;4.18;;;14.50;80.70;;;;;;5121035;27;20119;-58
2022/10/08 04:43:26;;;;;;;7.88;3.95;;;14.50;80.70;;;;;;5095647;28;20047;-59
2022/10/08 04:45:51;;;;;;;9.85;4.45;;;14.40;80.70;;;;;;5112139;28;20031;-58
2022/10/08 04:48:17;;;;;;;10.52;4.13;;;14.40;80.80;;;;;;5117621;28;20019;-59
2022/10/08 04:50:43;;;;;;;11.35;4.57;;;14.40;80.80;;;;;;5115920;27;20111;-59
2022/10/08 04:53:08;;;;;;;8.38;4.25;;;14.40;80.90;;;;;;5116678;28;20024;-57
2022/10/08 04:55:34;;;;;;;10.35;4.82;;;14.40;81.50;;;;;;5116269;28;20428;-59
2022/10/08 04:57:59;;;;;;;13.13;4.60;;;14.40;80.90;;;;;;5117459;28;20023;-60
2022/10/08 05:00:25;;;;;;;9.27;4.82;;;14.40;81.00;;;;;;5115899;28;20041;-60
2022/10/08 05:02:51;;;;;;;8.90;4.25;;;14.40;81.00;;;;;;5118727;27;20035;-59
2022/10/08 05:05:17;;;;;;;14.02;5.25;;;14.40;81.00;;;;;;5132088;27;20023;-59
2022/10/08 05:07:43;;;;;;;8.88;4.75;;;14.40;80.90;;;;;;5115409;27;20024;-59
2022/10/08 05:10:09;;;;;;;11.07;4.80;;;14.40;81.00;;;;;;5115610;28;20020;-60
2022/10/08 05:12:34;;;;;;;10.32;5.15;;;14.40;81.00;;;;;;5117028;28;20027;-58
2022/10/08 05:15:00;;;;;;;8.18;4.93;;;14.40;81.00;;;;;;5133210;27;20024;-59
2022/10/08 05:17:25;;;;;;;11.90;5.13;;;14.40;81.10;;;;;;5118758;27;20034;-57
2022/10/08 05:19:51;;;;;;;9.20;4.93;;;14.40;81.10;;;;;;5116542;28;20395;-61
2022/10/08 05:22:17;;;;;;;10.43;5.40;;;14.40;81.20;;;;;;5125493;27;20023;-59
2022/10/08 05:24:43;;;;;;;10.82;5.60;;;14.40;81.30;;;;;;5123030;27;20099;-59
2022/10/08 05:27:08;;;;;;;15.07;5.38;;;14.40;81.30;;;;;;5117580;27;20012;-59
2022/10/08 05:29:34;;;;;;;12.43;6.28;;;14.40;81.30;;;;;;5117008;28;20066;-58
2022/10/08 05:32:00;;;;;;;9.40;5.82;;;14.40;81.30;;;;;;5123134;27;20019;-58
2022/10/08 05:34:25;;;;;;;10.98;5.50;;;14.40;81.30;;;;;;5117603;27;20038;-59
2022/10/08 05:36:51;;;;;;;11.75;5.07;;;14.40;81.30;;;;;;5120152;27;20031;-58
2022/10/08 05:39:17;;;;;;;10.57;5.60;;;14.40;81.30;;;;;;5116963;28;20038;-59
2022/10/08 05:41:43;;;;;;;9.77;6.35;;;14.40;81.40;;;;;;5116753;28;20062;-58
2022/10/08 05:44:10;;;;;;;9.80;5.65;;;14.40;81.40;;;;;;5116425;28;20031;-59
2022/10/08 05:46:37;;;;;;;11.55;5.50;;;14.40;81.40;;;;;;5131270;27;20043;-59
2022/10/08 05:49:05;;;;;;;11.93;5.55;;;14.40;81.40;;;;;;5115799;28;20030;-59
2022/10/08 05:51:31;;;;;;;9.70;5.28;;;14.40;81.40;;;;;;5115749;28;20409;-59
2022/10/08 05:53:58;;;;;;;12.70;5.85;;;14.40;81.50;;;;;;5116703;28;20047;-59
2022/10/08 05:56:25;;;;;;;12.27;6.20;;;14.40;81.50;;;;;;5117261;27;20042;-59
2022/10/08 05:58:51;;;;;;;10.50;6.35;;;14.40;82.20;;;;;;5114220;28;20031;-59
2022/10/08 06:01:22;;;;;;;11.13;5.93;;;14.30;81.50;;;;;;5116333;28;20091;-58
2022/10/08 06:03:50;;;;;;;8.85;5.43;;;14.40;81.60;;;;;;5127845;27;20106;-58
2022/10/08 06:06:16;;;;;;;12.38;5.25;;;14.30;81.60;;;;;;5116908;27;20019;-59
2022/10/08 06:08:41;;;;;;;10.18;5.82;;;14.30;81.60;;;;;;5115951;27;20582;-60
2022/10/08 06:11:07;;;;;;;10.80;6.15;;;14.30;81.70;;;;;;5114195;28;20034;-60
2022/10/08 06:13:33;;;;;;;10.82;5.80;;;14.30;81.80;;;;;;5114961;28;20367;-61
2022/10/08 06:16:04;;;;;;;10.50;5.40;;;14.30;81.80;;;;;;5117753;27;20108;-60
2022/10/08 06:18:33;;;;;;;11.05;6.18;;;14.40;81.80;;;;;;5118924;27;20043;-59
2022/10/08 06:21:10;;;;;;;12.13;6.55;;;14.30;81.70;;;;;;5120400;27;20492;-60
2022/10/08 06:23:38;;;;;;;9.50;6.03;;;14.40;81.80;;;;;;5122506;27;20027;-59
2022/10/08 06:26:05;;;;;;;12.18;7.18;;;14.40;81.80;;;;;;5118534;27;20024;-59
2022/10/08 06:28:32;;;;;;;12.27;7.05;;;14.30;81.70;;;;;;5118238;27;20111;-60
2022/10/08 06:30:58;;;;;;;11.70;6.65;;;14.40;81.70;;;;;;5115371;28;20030;-60
2022/10/08 06:33:24;;;;;;;12.00;6.63;;;14.40;81.70;;;;;;5116235;27;20019;-60
2022/10/08 06:35:50;;;;;;;12.82;5.97;;;14.40;81.70;;;;;;5113804;27;20487;-59
2022/10/08 06:38:16;;;;;;;12.45;7.25;;;14.40;81.70;;;;;;5114581;28;20030;-60
2022/10/08 06:40:41;;;;;;;14.85;7.00;;;14.40;81.70;;;;;;5114943;28;20032;-60
2022/10/08 06:43:15;;;;;;;14.45;6.90;;;14.40;81.70;;;;;;5120547;27;20084;-60
2022/10/08 06:45:42;;;;;;;12.60;7.43;;;14.40;81.70;;;;;;5108152;28;20043;-60
2022/10/08 06:48:09;;;;;;;12.25;7.10;;;14.40;81.70;;;;;;5115306;28;20026;-60
2022/10/08 06:50:35;;;;;;;12.88;7.28;;;14.40;81.60;;;;;;5115499;28;20452;-60
2022/10/08 06:53:02;;;;;;;11.98;6.97;;;14.50;81.70;;;;;;5113657;28;20076;-60
2022/10/08 06:55:28;;;;;;;11.73;6.30;;;14.50;81.60;;;;;;5115266;28;20028;-60
2022/10/08 06:57:53;;;;;;;15.88;8.55;;;14.50;81.60;;;;;;5114569;28;20024;-60
2022/10/08 07:00:19;;;;;;;15.35;8.30;;;14.50;81.60;;;;;;5115029;28;20459;-59
2022/10/08 07:02:45;;;;;;;13.55;7.20;;;14.50;81.50;;;;;;5114336;28;20043;-60
2022/10/08 07:05:11;;;;;;;12.40;7.68;;;14.50;81.50;;;;;;5114308;28;20015;-60
2022/10/08 07:07:36;;;;;;;12.98;7.10;;;14.50;81.50;;;;;;5115145;28;20431;-59
2022/10/08 07:10:03;;;;;;;15.00;8.23;;;14.50;81.40;;;;;;5117907;28;20047;-59
2022/10/08 07:12:30;;;;;;;16.48;8.93;;;14.50;81.30;;;;;;5131226;28;20038;-59
2022/10/08 07:14:56;;;;;;;15.02;8.20;;;14.50;81.20;;;;;;5100813;28;20019;-60
2022/10/08 07:17:24;;;;;;;14.00;7.10;;;14.50;81.20;;;;;;5114150;28;20375;-59
2022/10/08 07:19:50;;;;;;;14.63;8.52;;;14.50;81.10;;;;;;5115200;28;20126;-59
2022/10/08 07:22:15;;;;;;;13.40;7.13;;;14.50;81.10;;;;;;5115051;28;20055;-60
2022/10/08 07:24:41;;;;;;;12.88;7.80;;;14.60;81.10;;;;;;5114223;28;20039;-60
2022/10/08 07:27:07;;;;;;;12.35;7.47;;;14.60;81.00;;;;;;5113834;28;20402;-59
2022/10/08 07:29:32;;;;;;;14.00;7.15;;;14.60;80.90;;;;;;5114387;28;20108;-60
2022/10/08 07:31:58;;;;;;;10.38;6.78;;;14.70;80.90;;;;;;5115320;28;20350;-59
2022/10/08 07:34:23;;;;;;;10.18;5.82;;;14.70;80.80;;;;;;5115107;28;20028;-60
2022/10/08 07:36:49;;;;;;;13.07;7.00;;;14.70;80.70;;;;;;5131069;28;20047;-60
2022/10/08 07:39:19;;;;;;;12.52;6.30;;;14.80;80.70;;;;;;5114425;28;20050;-60
2022/10/08 07:41:45;;;;;;;13.43;6.15;;;14.80;80.50;;;;;;5133945;27;20032;-60
2022/10/08 07:44:11;;;;;;;10.73;5.63;;;14.90;80.30;;;;;;5119961;28;20134;-60
2022/10/08 07:46:45;;;;;;;9.80;5.10;;;15.00;80.10;;;;;;5128072;27;20118;-60
2022/10/08 07:49:11;;;;;;;13.90;5.80;;;15.00;80.00;;;;;;5113815;28;20032;-60
2022/10/08 07:51:36;;;;;;;12.32;5.78;;;15.10;79.80;;;;;;5117397;28;20027;-60
2022/10/08 07:54:04;;;;;;;10.95;4.80;;;15.20;79.60;;;;;;5117906;28;20050;-60
2022/10/08 07:56:31;;;;;;;8.85;4.72;;;15.30;79.40;;;;;;5117822;28;20031;-59
2022/10/08 07:58:58;;;;;;;9.10;4.20;;;15.30;79.20;;;;;;5135172;27;20329;-60
2022/10/08 08:01:27;;;;;;;11.32;4.10;;;15.40;79.00;;;;;;5118575;28;20436;-60
2022/10/08 08:03:55;;;;;;;10.98;3.72;;;15.50;78.70;;;;;;5118521;28;20471;-61
2022/10/08 08:06:23;;;;;;;9.23;3.22;;;15.60;78.40;;;;;;5116871;27;20023;-60
2022/10/08 08:08:49;;;;;;;7.70;2.85;;;15.70;78.10;;;;;;5117265;28;20504;-60
2022/10/08 08:11:17;;;;;;;8.60;2.97;;;15.80;77.90;;;;;;5134110;27;20024;-60
2022/10/08 08:13:42;;;;;;;7.90;2.40;;;15.90;77.50;;;;;;5118314;27;20098;-58
2022/10/08 08:16:17;;;;;;;9.65;2.25;;;16.00;77.20;;;;;;5118042;28;20066;-60
2022/10/08 08:18:46;;;;;;;6.03;2.30;;;16.10;76.70;;;;;;5133235;27;20077;-60
2022/10/08 08:21:17;;;;;;;5.53;2.10;;;16.10;76.30;;;;;;5122966;27;20066;-60
2022/10/08 08:23:47;;;;;;;;;;;16.20;76.10;;;;;;5118528;27;20347;-60
2022/10/08 08:26:21;;;;;;;8.07;1.90;;;16.30;76.00;;;;;;5117106;27;19943;-60
2022/10/08 08:29:09;;;;;;;7.90;1.70;;;16.40;75.60;;;;;;5118903;27;20032;-60
2022/10/08 08:31:42;;;;;;;5.30;1.80;;;16.50;74.70;;;;;;5117350;27;20023;-60
2022/10/08 08:34:10;;;;;;;6.43;1.42;;;16.60;74.50;;;;;;5117057;28;20085;-60
2022/10/08 08:36:38;;;;;;;7.38;2.00;;;16.80;73.90;;;;;;5118053;27;20031;-60
2022/10/08 08:39:05;;;;;;;5.18;1.30;;;16.90;73.40;;;;;;5118185;28;20043;-60
2022/10/08 08:41:52;;;;;;;5.65;1.60;;;17.00;72.90;;;;;;5116447;28;20031;-60
2022/10/08 08:44:48;;;;;;;5.45;1.50;;;17.20;72.30;;;;;;5117871;27;20456;-61
2022/10/08 08:47:39;;;;;;;5.60;1.52;;;17.40;71.40;;;;;;5095433;28;20036;-60
2022/10/08 08:50:23;;;;;;;7.20;1.90;;;17.50;70.70;;;;;;5114860;27;20040;-61
2022/10/08 08:52:50;;;;;;;6.45;1.35;;;17.70;70.00;;;;;;5112111;27;20039;-62
2022/10/08 08:55:27;;;;;;;3.45;1.55;;;17.90;69.70;;;;;;5104158;28;20024;-62
2022/10/08 08:58:03;;;;;;;6.70;1.52;;;18.10;69.00;;;;;;5116991;27;20504;-62
2022/10/08 09:00:34;;;;;;;6.93;1.73;;;18.20;68.30;;;;;;5102074;28;20047;-62
2022/10/08 09:03:20;;;;;;;5.25;1.30;;;18.30;67.60;;;;;;5104592;28;20044;-62
2022/10/08 09:05:51;;;;;;;6.78;1.67;;;18.40;67.30;;;;;;5105629;28;20105;-62
2022/10/08 09:08:30;;;;;;;7.97;1.80;;;18.60;66.80;;;;;;5117014;27;20046;-61
2022/10/08 09:10:57;;;;;;;8.15;1.40;;;18.80;66.40;;;;;;5098903;28;20046;-61
2022/10/08 09:13:28;;;;;;;4.15;1.25;;;18.90;66.00;;;;;;5117736;27;20038;-61
2022/10/08 09:15:54;;;;;;;5.90;1.45;;;18.90;65.10;;;;;;5106618;28;20027;-61
2022/10/08 09:18:21;;;;;;;5.60;1.30;;;19.00;64.60;;;;;;5115177;28;20097;-60
2022/10/08 09:20:46;;;;;;;6.95;1.55;;;18.90;64.10;;;;;;5115957;28;20155;-60
2022/10/08 09:23:22;;;;;;;5.00;1.23;;;18.90;64.00;;;;;;5115418;28;20609;-60
2022/10/08 09:26:12;;;;;;;5.13;1.40;;;19.00;63.70;;;;;;5114838;28;20084;-60
2022/10/08 09:28:50;;;;;;;7.43;1.50;;;19.10;63.20;;;;;;5108572;27;20367;-60
2022/10/08 09:31:25;;;;;;;8.43;1.90;;;19.20;63.10;;;;;;5108927;28;20107;-60
2022/10/08 09:34:03;;;;;;;7.82;1.58;;;19.30;62.50;;;;;;5115961;28;20032;-60
2022/10/08 09:36:32;;;;;;;8.35;1.52;;;19.30;62.20;;;;;;5118483;27;20058;-60
2022/10/08 09:38:59;;;;;;;8.60;1.75;;;19.40;62.00;;;;;;5115900;27;20033;-60
2022/10/08 09:41:27;;;;;;;6.25;1.65;;;19.50;61.40;;;;;;5115521;27;20039;-60
2022/10/08 09:44:19;;;;;;;6.18;1.40;;;19.50;61.00;;;;;;5130996;27;20028;-60
2022/10/08 09:46:46;;;;;;;7.45;2.10;;;19.40;60.80;;;;;;5104853;28;20108;-60
2022/10/08 09:49:30;;;;;;;6.38;1.58;;;19.20;61.10;;;;;;5132542;27;20444;-58
2022/10/08 09:52:00;;;;;;;4.97;1.63;;;19.10;61.10;;;;;;5116412;28;20351;-60
2022/10/08 09:54:31;;;;;;;7.13;1.65;;;19.10;61.20;;;;;;5116392;27;20088;-60
2022/10/08 09:56:59;;;;;;;6.25;1.67;;;18.90;61.30;;;;;;5118733;27;20067;-60
2022/10/08 09:59:27;;;;;;;5.15;1.20;;;18.70;61.80;;;;;;5132201;27;20048;-58
2022/10/08 10:01:54;;;;;;;6.10;1.20;;;18.40;62.40;;;;;;5116061;28;20026;-63
2022/10/08 10:04:37;;;;;;;4.47;1.60;;;18.20;63.00;;;;;;5114392;27;20040;-60
2022/10/08 10:07:04;;;;;;;7.90;1.58;;;18.00;63.50;;;;;;5107301;27;20028;-59
2022/10/08 10:09:53;;;;;;;6.35;1.58;;;17.80;64.00;;;;;;5115860;28;20042;-60
2022/10/08 10:12:31;;;;;;;2.80;1.02;;;17.70;64.50;;;;;;5115665;28;20032;-59
2022/10/08 10:15:00;;;;;;;7.20;1.90;;;17.50;64.70;;;;;;5115310;28;20360;-59
2022/10/08 10:17:46;;;;;;;4.80;1.33;;;17.40;64.50;;;;;;5113959;27;20027;-59
2022/10/08 10:20:18;;;;;;;5.63;1.30;;;17.60;63.80;;;;;;5113708;27;20054;-59
2022/10/08 10:22:54;;;;;;;6.00;1.40;;;17.70;63.40;;;;;;5114329;28;20448;-59
2022/10/08 10:25:48;;;;;;;3.88;1.30;;;17.70;63.20;;;;;;5113467;27;20027;-59
2022/10/08 10:28:24;;;;;;;5.20;1.35;;;17.90;62.40;;;;;;5111434;28;20055;-57
2022/10/08 10:31:00;;;;;;;6.47;1.45;;;18.10;61.90;;;;;;5112927;27;20031;-60
2022/10/08 10:33:37;;;;;;;3.67;1.33;;;18.30;61.30;;;;;;5113512;27;20042;-60
2022/10/08 10:36:12;;;;;;;5.22;1.38;;;18.30;61.30;;;;;;5130333;27;20104;-59
2022/10/08 10:38:44;;;;;;;3.35;1.10;;;18.30;61.30;;;;;;5113779;28;20034;-60
2022/10/08 10:41:36;;;;;;;5.65;1.55;;;18.20;61.30;;;;;;5112787;28;20458;-60
2022/10/08 10:44:13;;;;;;;6.18;1.50;;;18.10;61.60;;;;;;5113516;28;20067;-59
2022/10/08 10:46:48;;;;;;;4.15;1.40;;;18.10;62.10;;;;;;5110618;28;20094;-59
2022/10/08 10:49:17;;;;;;;8.20;1.70;;;17.90;62.40;;;;;;5112849;28;20390;-58
2022/10/08 10:52:30;;;;;;;6.38;1.58;;;17.70;62.80;;;;;;5113366;28;20028;-59
2022/10/08 10:55:02;;;;;;;6.38;1.30;;;17.50;63.00;;;;;;5052701;28;20033;-59
2022/10/08 10:57:48;;;;;;;6.22;1.38;;;17.30;63.50;;;;;;5054434;28;20080;-59
2022/10/08 11:00:29;;;;;;;4.13;1.10;;;17.10;63.70;;;;;;5053135;28;20025;-59
2022/10/08 11:03:29;;;;;;;6.72;1.30;;;17.00;64.10;;;;;;5054250;28;20095;-58
2022/10/08 11:06:18;;;;;;;6.88;1.30;;;16.90;64.50;;;;;;5060816;28;20028;-59
2022/10/08 11:09:09;;;;;;;6.35;1.50;;;16.90;64.80;;;;;;5056846;28;20041;-59
2022/10/08 11:11:49;;;;;;;4.10;1.20;;;17.00;64.80;;;;;;5052148;28;20089;-59
2022/10/08 11:14:36;;;;;;;5.70;1.30;;;17.30;64.50;;;;;;5054557;28;20044;-60
2022/10/08 11:17:37;;;;;;;4.82;1.13;;;17.60;64.00;;;;;;5063966;28;20373;-59
2022/10/08 11:20:29;;;;;;;4.70;1.40;;;17.90;63.50;;;;;;5050469;28;20048;-59
2022/10/08 11:23:00;;;;;;;6.20;1.65;;;18.20;62.90;;;;;;5055152;28;20064;-59
2022/10/08 11:25:39;;;;;;;7.15;1.70;;;18.40;62.60;;;;;;5051824;28;20025;-59
2022/10/08 11:28:18;;;;;;;9.95;1.40;;;18.50;62.30;;;;;;5048149;28;20445;-59
2022/10/08 11:31:05;;;;;;;5.30;1.60;;;18.60;62.20;;;;;;5120666;27;20045;-59
2022/10/08 11:33:31;;;;;;;8.10;1.58;;;18.60;62.00;;;;;;5118013;28;20032;-60
2022/10/08 11:36:32;;;;;;;8.02;1.35;;;18.70;61.90;;;;;;5118282;27;20054;-59
2022/10/08 11:38:58;;;;;;;4.70;1.20;;;18.70;61.50;;;;;;5118144;28;20031;-60
2022/10/08 11:41:42;;;;;;;5.20;1.50;;;18.70;61.60;;;;;;5117691;27;20031;-60
2022/10/08 11:44:10;;;;;;;5.95;1.45;;;18.70;61.50;;;;;;5105827;28;20084;-59
2022/10/08 11:46:36;;;;;;;4.55;1.42;;;18.80;61.50;;;;;;5116857;28;20405;-59
2022/10/08 11:49:14;;;;;;;6.97;1.40;;;18.70;62.30;;;;;;5118233;28;20020;-59
2022/10/08 11:51:49;;;;;;;4.78;1.10;;;18.50;61.70;;;;;;5121411;27;20020;-59
2022/10/08 11:54:30;;;;;;;5.80;1.40;;;18.30;62.20;;;;;;5108902;27;20168;-59
2022/10/08 11:57:36;;;;;;;5.43;1.47;;;18.10;62.50;;;;;;5099165;28;20028;-59
2022/10/08 12:00:06;;;;;;;5.03;1.48;;;18.00;62.60;;;;;;5117162;27;20579;-60
2022/10/08 12:02:40;;;;;;;5.88;1.75;;;18.00;62.40;;;;;;5117863;28;20027;-58
2022/10/08 12:05:16;;;;;;;5.20;1.38;;;18.10;62.10;;;;;;5117041;28;20027;-63
2022/10/08 12:07:49;;;;;;;6.20;1.70;;;18.20;61.90;;;;;;5113889;28;20036;-63
2022/10/08 12:10:18;;;;;;;6.95;2.05;;;18.20;61.70;;;;;;5118345;27;20337;-63
2022/10/08 12:12:49;;;;;;;11.70;1.58;;;18.20;61.40;;;;;;5118608;27;20028;-63
2022/10/08 12:15:26;;;;;;;7.30;1.88;;;18.30;61.10;;;;;;5116083;28;20107;-63
2022/10/08 12:17:57;;;;;;;8.02;1.40;;;18.30;60.90;;;;;;5131469;27;20048;-63
2022/10/08 12:20:26;;;;;;;6.57;1.38;;;18.30;60.50;;;;;;5100618;28;20089;-63
2022/10/08 12:23:08;;;;;;;5.78;1.08;;;18.40;60.10;;;;;;5123613;27;20020;-63
2022/10/08 12:25:35;;;;;;;;;;;18.40;59.70;;;;;;5117242;28;20027;-63
2022/10/08 12:28:19;;;;;;;6.93;1.20;;;18.50;59.90;;;;;;5116357;28;19908;-63
2022/10/08 12:31:01;;;;;;;5.00;1.20;;;18.50;59.80;;;;;;5116943;28;20028;-63
2022/10/08 12:33:29;;;;;;;3.33;1.02;;;18.50;59.30;;;;;;5107655;27;20360;-63
2022/10/08 12:36:00;;;;;;;7.60;1.52;;;18.50;59.20;;;;;;5127489;27;20023;-63
2022/10/08 12:38:50;;;;;;;6.53;1.40;;;18.50;59.00;;;;;;5120162;27;20123;-63
2022/10/08 12:41:20;;;;;;;5.97;1.50;;;18.40;58.60;;;;;;5115741;27;20054;-63
2022/10/08 12:43:59;;;;;;;7.05;1.85;;;18.40;58.40;;;;;;5116910;27;20317;-63
2022/10/08 12:46:36;;;;;;;6.35;1.50;;;18.20;58.20;;;;;;5117212;28;20088;-63
2022/10/08 12:49:19;;;;;;;7.13;1.17;;;18.20;58.20;;;;;;5116020;28;20034;-63
2022/10/08 12:52:00;;;;;;;5.78;1.45;;;18.20;58.10;;;;;;5118198;27;20023;-64
2022/10/08 12:54:28;;;;;;;5.80;1.37;;;18.20;58.00;;;;;;5117784;28;20421;-64
2022/10/08 12:56:54;;;;;;;6.95;1.48;;;18.20;57.80;;;;;;5116625;28;20023;-64
2022/10/08 12:59:23;;;;;;;6.78;1.38;;;18.20;57.60;;;;;;5115938;28;20032;-64
2022/10/08 13:01:50;;;;;;;7.93;1.67;;;18.20;57.20;;;;;;5115272;28;20091;-64
2022/10/08 13:04:24;;;;;;;5.78;1.10;;;18.20;57.30;;;;;;5114988;27;20080;-63
2022/10/08 13:06:52;;;;;;;6.75;1.42;;;18.10;56.70;;;;;;5116392;28;20148;-64
2022/10/08 13:09:34;;;;;;;7.53;1.75;;;18.00;56.60;;;;;;5114825;28;20630;-63
2022/10/08 13:12:04;;;;;;;8.15;1.77;;;18.00;56.60;;;;;;5113291;28;20030;-63